Drewsey, Oregon
Current Conditions -  °F | °C
As of 2:53 PM on Thursday 27 Nov 2014 (Local Time) from KBNO Reporting Station
Clear Clear  
Wind Chill: 45°   Ceiling: Unl
Heat Index: 45°   Visibility: 10mi
Dew Point: 42°   Wind: 3mph
Humidity: 90%   Direction: 260°W
Pressure: 30.06"   Gusts: NA
Location:  43.81°N, 118.38°W
Report Text: KBNO 272253Z AUTO 26003KT 10SM CLR 07/06 A3006 RMK AO2 SLP185 T00720056
Loading
Personal Weather Stations






























Interactive Weather Map New forecast layout! Learn more

10-Day Weather Forecast

Advertisements
Track Severe Weather on mobile